Time;durP1;ratioP1;P1;durP2;ratioP2;P2;SDS_P1;SDS_P2;PMS_P1;PMS_P2;Temp;Humidity;BMP_temperature;BMP_pressure;BME280_temperature;BME280_humidity;BME280_pressure;Samples;Min_cycle;Max_cycle;Signal;HPM_P1;HPM_P2
2023/08/28 00:02:20;;;;;;;5.47;1.75;;;18.60;90.30;;;;;;5024821;28;20050;-77
2023/08/28 00:04:46;;;;;;;5.68;1.83;;;18.00;90.50;;;;;;5028167;28;20124;-76
2023/08/28 00:07:12;;;;;;;6.05;1.98;;;18.60;91.10;;;;;;5022708;28;20529;-77
2023/08/28 00:09:39;;;;;;;5.75;2.38;;;18.80;91.70;;;;;;5005249;28;20029;-77
2023/08/28 00:12:05;;;;;;;5.45;1.83;;;18.70;92.90;;;;;;5011900;28;20388;-77
2023/08/28 00:14:31;;;;;;;5.13;1.75;;;18.70;91.90;;;;;;5027066;28;20042;-77
2023/08/28 00:16:57;;;;;;;6.93;1.67;;;18.20;93.30;;;;;;5009728;28;20044;-77
2023/08/28 00:19:23;;;;;;;6.10;1.38;;;18.60;94.20;;;;;;5016732;28;20611;-77
2023/08/28 00:21:49;;;;;;;4.85;1.23;;;17.80;94.20;;;;;;5006715;28;20044;-76
2023/08/28 00:24:15;;;;;;;3.67;1.20;;;19.00;94.30;;;;;;5021997;28;20050;-77
2023/08/28 00:26:40;;;;;;;5.53;1.33;;;16.60;93.80;;;;;;5022102;28;20041;-77
2023/08/28 00:29:06;;;;;;;4.18;1.10;;;18.60;95.10;;;;;;5018419;28;20120;-77
2023/08/28 00:31:31;;;;;;;4.32;1.13;;;18.50;95.60;;;;;;5024121;28;20573;-77
2023/08/28 00:33:57;;;;;;;5.53;1.90;;;18.40;96.80;;;;;;5013752;28;20052;-77
2023/08/28 00:36:23;;;;;;;5.75;1.30;;;18.70;96.30;;;;;;5023708;28;20090;-77
2023/08/28 00:38:48;;;;;;;4.45;1.40;;;18.90;97.20;;;;;;5027431;28;20045;-77
2023/08/28 00:41:14;;;;;;;5.45;1.65;;;18.60;97.70;;;;;;5016316;28;20049;-76
2023/08/28 00:43:40;;;;;;;4.10;1.33;;;18.60;98.40;;;;;;5021382;28;20120;-77
2023/08/28 00:46:06;;;;;;;5.03;1.42;;;18.80;99.90;;;;;;5022179;28;20053;-77
2023/08/28 00:48:32;;;;;;;3.75;1.30;;;18.00;99.90;;;;;;5019201;28;20077;-77
2023/08/28 00:51:00;;;;;;;3.58;1.30;;;18.30;99.90;;;;;;5017260;28;20119;-77
2023/08/28 00:53:26;;;;;;;5.40;1.60;;;17.90;99.90;;;;;;4996226;28;20033;-77
2023/08/28 00:55:52;;;;;;;4.65;1.40;;;18.60;99.90;;;;;;5023890;28;20029;-77
2023/08/28 00:58:18;;;;;;;4.60;1.70;;;17.60;99.90;;;;;;5018239;28;20088;-77
2023/08/28 01:00:43;;;;;;;5.25;1.60;;;18.10;99.90;;;;;;5028379;28;20076;-77
2023/08/28 01:03:12;;;;;;;5.03;1.60;;;18.70;99.90;;;;;;5014244;28;20042;-76
2023/08/28 01:05:56;;;;;;;3.60;1.38;;;18.20;99.90;;;;;;5002444;28;20042;-77
2023/08/28 01:08:41;;;;;;;4.10;1.20;;;18.50;99.90;;;;;;5018446;28;20038;-77
2023/08/28 01:11:18;;;;;;;4.75;1.35;;;18.20;99.90;;;;;;5017448;28;20102;-76
2023/08/28 01:14:25;;;;;;;4.72;1.40;;;18.50;99.90;;;;;;5027952;28;20033;-77
2023/08/28 01:16:52;;;;;;;6.20;1.55;;;17.90;99.90;;;;;;5002059;28;20100;-77
2023/08/28 01:19:35;;;;;;;4.38;1.40;;;17.40;99.90;;;;;;5026829;28;20045;-76
2023/08/28 01:22:28;;;;;;;4.35;1.20;;;18.10;99.90;;;;;;5015359;28;20048;-77
2023/08/28 01:25:08;;;;;;;3.53;1.40;;;18.90;99.90;;;;;;5025176;28;20661;-77
2023/08/28 01:27:34;;;;;;;3.90;1.30;;;18.30;99.90;;;;;;5003067;28;20041;-77
2023/08/28 01:30:26;;;;;;;4.68;1.33;;;18.70;99.90;;;;;;5022408;28;20037;-77
2023/08/28 01:32:52;;;;;;;4.45;1.30;;;18.70;99.90;;;;;;5014371;28;20152;-77
2023/08/28 01:35:20;;;;;;;6.05;1.30;;;18.50;99.90;;;;;;5022935;28;20148;-77
2023/08/28 01:38:20;;;;;;;4.85;1.30;;;17.60;99.90;;;;;;5010550;28;20030;-77
2023/08/28 01:41:07;;;;;;;4.80;1.20;;;18.40;99.90;;;;;;5022726;28;20038;-77
2023/08/28 01:43:46;;;;;;;5.20;1.30;;;18.10;99.90;;;;;;5023229;28;20049;-76
2023/08/28 01:46:12;;;;;;;4.78;1.42;;;17.80;99.90;;;;;;5010458;28;20068;-77
2023/08/28 01:48:47;;;;;;;4.95;1.20;;;18.50;99.90;;;;;;5006919;28;20045;-77
2023/08/28 01:51:13;;;;;;;4.38;1.10;;;17.40;99.90;;;;;;5004486;28;20817;-77
2023/08/28 01:53:38;;;;;;;4.55;1.17;;;17.50;99.90;;;;;;5024293;28;20060;-77
2023/08/28 01:56:07;;;;;;;4.50;1.08;;;17.60;99.90;;;;;;5009380;28;20045;-77
2023/08/28 01:58:48;;;;;;;3.05;1.00;;;18.90;99.90;;;;;;5006912;28;20042;-77
2023/08/28 02:01:14;;;;;;;3.72;1.33;;;17.50;99.90;;;;;;5026923;28;20033;-76
2023/08/28 02:03:40;;;;;;;3.75;1.13;;;17.40;99.90;;;;;;5024912;28;20034;-77
2023/08/28 02:06:06;;;;;;;4.28;1.10;;;18.40;99.90;;;;;;5022742;28;20061;-77
2023/08/28 02:08:32;;;;;;;2.95;1.00;;;18.60;99.90;;;;;;5022278;28;20100;-76
2023/08/28 02:10:58;;;;;;;3.47;1.00;;;19.00;99.90;;;;;;5006243;28;20113;-77
2023/08/28 02:13:23;;;;;;;4.75;1.10;;;18.00;99.30;;;;;;5004441;28;20025;-77
2023/08/28 02:15:49;;;;;;;4.32;1.15;;;19.50;96.30;;;;;;5028226;28;20044;-77
2023/08/28 02:18:15;;;;;;;3.42;1.15;;;17.30;93.20;;;;;;5022004;28;20127;-77
2023/08/28 02:20:41;;;;;;;3.72;1.17;;;17.50;91.50;;;;;;5028867;28;20037;-77
2023/08/28 02:23:07;;;;;;;4.38;1.10;;;17.30;90.00;;;;;;5027280;28;20134;-77
2023/08/28 02:25:32;;;;;;;5.07;1.05;;;17.60;86.10;;;;;;5021368;28;20045;-76
2023/08/28 02:27:58;;;;;;;5.18;1.10;;;17.40;85.00;;;;;;5023986;28;20730;-77
2023/08/28 02:30:23;;;;;;;2.88;0.90;;;18.10;83.20;;;;;;5027623;28;20042;-77
2023/08/28 02:32:49;;;;;;;4.78;1.20;;;17.30;81.00;;;;;;5028645;28;20034;-77
2023/08/28 02:35:15;;;;;;;5.65;1.10;;;17.80;78.80;;;;;;5024254;28;20029;-77
2023/08/28 02:37:41;;;;;;;6.15;1.20;;;18.10;77.60;;;;;;5026980;28;20037;-77
2023/08/28 02:40:09;;;;;;;2.65;1.35;;;18.00;75.60;;;;;;5027418;28;20041;-77
2023/08/28 02:42:36;;;;;;;3.75;1.27;;;17.10;62.50;;;;;;5009014;28;20034;-77
2023/08/28 02:45:02;;;;;;;6.63;1.30;;;18.20;68.50;;;;;;5027919;28;20047;-77
2023/08/28 02:47:31;;;;;;;6.38;1.27;;;17.70;60.30;;;;;;5026233;28;20034;-77
2023/08/28 02:49:56;;;;;;;4.05;0.90;;;18.00;40.80;;;;;;5025905;28;20037;-77
2023/08/28 02:52:22;;;;;;;3.53;1.08;;;17.90;55.30;;;;;;5028965;28;20125;-77
2023/08/28 02:54:48;;;;;;;5.57;1.42;;;17.80;56.40;;;;;;5008233;28;20065;-77
2023/08/28 02:57:13;;;;;;;3.78;1.38;;;18.10;59.00;;;;;;5026438;28;20038;-77
2023/08/28 02:59:39;;;;;;;5.47;1.40;;;17.20;57.50;;;;;;5026250;28;20095;-77
2023/08/28 03:02:08;;;;;;;4.55;1.20;;;17.80;59.00;;;;;;5025426;28;20065;-77
2023/08/28 03:04:34;;;;;;;4.88;1.42;;;17.30;60.90;;;;;;5019373;28;20036;-77
2023/08/28 03:07:00;;;;;;;5.68;1.45;;;17.20;59.10;;;;;;5013517;28;20133;-77
2023/08/28 03:09:26;;;;;;;4.10;1.30;;;17.00;63.60;;;;;;5018563;28;20037;-76
2023/08/28 03:11:51;;;;;;;5.00;1.35;;;18.10;62.50;;;;;;5028658;28;20041;-76
2023/08/28 03:14:17;;;;;;;3.95;1.20;;;17.60;64.30;;;;;;5012941;28;20037;-76
2023/08/28 03:16:43;;;;;;;5.03;1.38;;;17.20;65.30;;;;;;5021629;28;20506;-76
2023/08/28 03:19:08;;;;;;;4.47;1.55;;;18.00;65.90;;;;;;5010076;28;20037;-76
2023/08/28 03:21:35;;;;;;;5.00;1.52;;;18.40;69.10;;;;;;5011098;28;20072;-76
2023/08/28 03:24:00;;;;;;;5.80;1.58;;;18.30;70.10;;;;;;5010872;28;20426;-76
2023/08/28 03:26:28;;;;;;;5.25;1.60;;;17.90;72.10;;;;;;5027209;28;20044;-76
2023/08/28 03:28:54;;;;;;;6.40;1.80;;;18.40;75.80;;;;;;5028891;28;20155;-76
2023/08/28 03:31:21;;;;;;;4.75;1.50;;;17.40;79.30;;;;;;5024793;28;20049;-76
2023/08/28 03:33:47;;;;;;;4.25;1.20;;;17.70;80.40;;;;;;5015160;28;20642;-76
2023/08/28 03:36:13;;;;;;;4.35;1.40;;;17.40;82.80;;;;;;5000516;28;20050;-76
2023/08/28 03:38:39;;;;;;;5.10;1.83;;;17.80;82.20;;;;;;5027283;28;20410;-76
2023/08/28 03:41:04;;;;;;;4.25;1.40;;;17.70;78.10;;;;;;5018606;28;20038;-76
2023/08/28 03:43:30;;;;;;;8.45;1.42;;;17.30;85.40;;;;;;5029594;28;20044;-76
2023/08/28 03:45:56;;;;;;;5.90;1.70;;;17.30;90.40;;;;;;5021411;28;20049;-76
2023/08/28 03:48:21;;;;;;;5.82;1.60;;;17.40;90.80;;;;;;5028449;28;20049;-76
2023/08/28 03:50:50;;;;;;;4.38;1.50;;;17.50;91.60;;;;;;5029786;28;20045;-75
2023/08/28 03:53:16;;;;;;;4.63;1.73;;;17.10;94.20;;;;;;5028045;28;20052;-76
2023/08/28 03:55:41;;;;;;;6.15;1.60;;;18.00;94.90;;;;;;5004421;28;20034;-76
2023/08/28 03:58:08;;;;;;;5.07;1.60;;;17.30;95.50;;;;;;5026521;28;20079;-76
2023/08/28 04:00:36;;;;;;;4.47;2.10;;;17.20;96.80;;;;;;5024122;28;20042;-76
2023/08/28 04:03:05;;;;;;;4.95;1.70;;;17.50;92.10;;;;;;5026286;28;20040;-76
2023/08/28 04:05:35;;;;;;;4.32;1.40;;;18.00;98.40;;;;;;5008531;28;20037;-76
2023/08/28 04:08:00;;;;;;;4.35;1.60;;;17.30;99.50;;;;;;5027807;28;20506;-76
2023/08/28 04:10:26;;;;;;;11.20;1.90;;;17.30;99.40;;;;;;5002438;28;20041;-76
2023/08/28 04:12:52;;;;;;;3.92;1.40;;;17.90;98.50;;;;;;5028372;28;20033;-76
2023/08/28 04:15:19;;;;;;;5.20;1.70;;;18.30;99.90;;;;;;5025312;28;20099;-76
2023/08/28 04:17:45;;;;;;;3.80;1.50;;;18.10;99.90;;;;;;5025958;28;20551;-76
2023/08/28 04:20:14;;;;;;;4.75;1.55;;;17.50;99.90;;;;;;5008832;28;20125;-76
2023/08/28 04:22:41;;;;;;;4.13;1.63;;;18.10;99.90;;;;;;5022850;28;20045;-76
2023/08/28 04:25:08;;;;;;;4.97;1.70;;;18.00;99.90;;;;;;5027022;28;20119;-76
2023/08/28 04:27:33;;;;;;;4.00;1.45;;;17.30;99.90;;;;;;5017424;28;20034;-76
2023/08/28 04:29:59;;;;;;;6.28;1.60;;;18.20;99.90;;;;;;5025000;28;20041;-76
2023/08/28 04:32:25;;;;;;;5.05;1.83;;;17.00;99.90;;;;;;5018100;28;20115;-76
2023/08/28 04:34:51;;;;;;;4.90;2.15;;;17.50;99.90;;;;;;5021334;28;20036;-76
2023/08/28 04:37:16;;;;;;;4.68;1.83;;;17.00;99.90;;;;;;5017526;28;20503;-76
2023/08/28 04:39:43;;;;;;;5.15;1.70;;;17.10;99.90;;;;;;5024562;28;20033;-76
2023/08/28 04:42:10;;;;;;;8.15;2.83;;;17.50;99.90;;;;;;5022142;28;20723;-76
2023/08/28 04:44:36;;;;;;;6.00;2.30;;;17.50;99.90;;;;;;5031667;28;20061;-77
2023/08/28 04:47:02;;;;;;;7.90;2.13;;;18.10;99.90;;;;;;5015669;28;20029;-77
2023/08/28 04:49:28;;;;;;;11.27;2.50;;;18.20;99.90;;;;;;5006476;28;20044;-76
2023/08/28 04:51:53;;;;;;;9.80;3.03;;;17.10;99.90;;;;;;5017757;28;20038;-75
2023/08/28 04:54:19;;;;;;;8.95;3.00;;;17.00;99.90;;;;;;5021550;28;20068;-76
2023/08/28 04:56:45;;;;;;;8.30;2.60;;;18.20;99.90;;;;;;5004108;28;20030;-76
2023/08/28 04:59:12;;;;;;;6.57;2.22;;;17.20;99.90;;;;;;5018483;28;20122;-76
2023/08/28 05:01:37;;;;;;;5.53;2.05;;;17.00;99.90;;;;;;5022314;28;20121;-76
2023/08/28 05:04:04;;;;;;;7.10;2.22;;;17.70;99.90;;;;;;5015799;28;20463;-76
2023/08/28 05:06:30;;;;;;;5.85;2.20;;;18.30;99.90;;;;;;5021034;28;20037;-76
2023/08/28 05:08:55;;;;;;;6.00;2.22;;;17.40;99.90;;;;;;5016318;28;20037;-77
2023/08/28 05:11:21;;;;;;;6.15;2.03;;;17.50;99.90;;;;;;5009170;28;20065;-77
2023/08/28 05:13:47;;;;;;;5.65;2.20;;;17.00;99.90;;;;;;5010518;28;20053;-76
2023/08/28 05:16:12;;;;;;;6.38;2.63;;;17.50;99.90;;;;;;5010513;28;20033;-76
2023/08/28 05:18:38;;;;;;;5.13;2.22;;;17.60;99.90;;;;;;5019060;28;20034;-77
2023/08/28 05:21:04;;;;;;;5.22;2.08;;;18.30;99.90;;;;;;5019908;28;20607;-77
2023/08/28 05:23:30;;;;;;;6.32;2.05;;;17.40;99.90;;;;;;5002589;28;20032;-76
2023/08/28 05:25:55;;;;;;;4.72;2.03;;;17.10;99.90;;;;;;5017311;28;20503;-76
2023/08/28 05:28:21;;;;;;;5.97;2.35;;;17.30;99.90;;;;;;5008029;28;20073;-77
2023/08/28 05:30:47;;;;;;;7.22;2.50;;;17.30;99.90;;;;;;5009870;28;20053;-76
2023/08/28 05:33:13;;;;;;;5.55;2.55;;;17.60;99.90;;;;;;5028732;28;20126;-77
2023/08/28 05:35:39;;;;;;;5.07;2.00;;;17.10;99.90;;;;;;5007331;28;20033;-77
2023/08/28 05:38:06;;;;;;;4.90;1.92;;;17.50;99.90;;;;;;5011202;28;20140;-77
2023/08/28 05:40:32;;;;;;;15.45;3.47;;;18.20;99.90;;;;;;5028609;28;20496;-76
2023/08/28 05:42:57;;;;;;;11.43;3.38;;;18.20;99.90;;;;;;5024141;28;20037;-77
2023/08/28 05:45:23;;;;;;;8.65;3.28;;;18.30;99.90;;;;;;5004170;28;20049;-77
2023/08/28 05:47:49;;;;;;;10.30;3.63;;;18.10;99.90;;;;;;5002277;28;20037;-77
2023/08/28 05:50:17;;;;;;;11.25;3.45;;;17.30;99.90;;;;;;5023069;28;20034;-77
2023/08/28 05:52:44;;;;;;;7.88;2.70;;;18.00;99.90;;;;;;5023768;28;20137;-77
2023/08/28 05:55:10;;;;;;;8.25;3.05;;;18.20;99.90;;;;;;5037773;28;20030;-77
2023/08/28 05:57:35;;;;;;;12.00;3.28;;;18.40;99.90;;;;;;5010641;28;20041;-77
2023/08/28 06:00:02;;;;;;;6.80;2.78;;;17.10;99.90;;;;;;5028799;28;20455;-76
2023/08/28 06:02:28;;;;;;;8.35;2.67;;;18.10;99.90;;;;;;5024955;28;20049;-77
2023/08/28 06:04:54;;;;;;;7.22;2.95;;;17.00;99.90;;;;;;5007896;28;20041;-77
2023/08/28 06:07:19;;;;;;;8.45;2.53;;;17.50;99.90;;;;;;5007114;28;20469;-77
2023/08/28 06:09:45;;;;;;;6.35;2.65;;;17.00;99.90;;;;;;5022176;28;20041;-77
2023/08/28 06:12:11;;;;;;;7.68;2.53;;;18.30;99.90;;;;;;5007041;28;20415;-78
2023/08/28 06:14:37;;;;;;;6.90;2.45;;;17.40;99.90;;;;;;5004415;28;20029;-77
2023/08/28 06:17:05;;;;;;;6.95;2.60;;;17.30;99.90;;;;;;5022058;28;20041;-78
2023/08/28 06:19:31;;;;;;;7.35;1.92;;;17.20;99.90;;;;;;5021349;28;20522;-77
2023/08/28 06:21:58;;;;;;;9.48;2.13;;;17.50;99.90;;;;;;5021599;28;20041;-77
2023/08/28 06:24:23;;;;;;;5.57;2.10;;;18.50;99.90;;;;;;5005387;28;20044;-76
2023/08/28 06:26:51;;;;;;;4.60;1.77;;;18.20;99.90;;;;;;5024288;28;20041;-77
2023/08/28 06:29:16;;;;;;;7.05;1.92;;;18.00;99.90;;;;;;5007950;28;20045;-77
2023/08/28 06:31:42;;;;;;;5.45;1.95;;;17.80;99.90;;;;;;5024357;28;20065;-78
2023/08/28 06:34:09;;;;;;;5.95;2.00;;;18.00;99.90;;;;;;5023159;28;20038;-78
2023/08/28 06:36:34;;;;;;;4.78;1.55;;;17.80;99.90;;;;;;5021621;28;20046;-78
2023/08/28 06:39:00;;;;;;;5.30;1.80;;;18.50;99.90;;;;;;5004470;28;20044;-77
2023/08/28 06:41:26;;;;;;;4.80;1.63;;;17.50;99.90;;;;;;5003395;28;20506;-78
2023/08/28 06:43:51;;;;;;;5.15;1.73;;;17.30;99.90;;;;;;5005948;28;20050;-79
2023/08/28 06:46:17;;;;;;;6.88;2.33;;;18.80;99.90;;;;;;5006797;28;20048;-78
2023/08/28 06:48:48;;;;;;;5.05;1.50;;;17.60;99.90;;;;;;5007695;28;20041;-79
2023/08/28 06:51:14;;;;;;;6.57;1.92;;;17.80;99.90;;;;;;5022612;28;20277;-78
2023/08/28 06:53:39;;;;;;;5.35;1.60;;;18.10;99.90;;;;;;5020712;28;20633;-78
2023/08/28 06:56:05;;;;;;;5.15;1.30;;;17.60;99.90;;;;;;5019017;28;20120;-78
2023/08/28 06:58:31;;;;;;;5.60;1.60;;;18.10;99.90;;;;;;5020272;28;20045;-78
2023/08/28 07:00:57;;;;;;;3.80;1.23;;;17.40;99.90;;;;;;5008655;28;20041;-77
2023/08/28 07:03:23;;;;;;;6.13;1.95;;;17.30;99.90;;;;;;5020131;28;20057;-77
2023/08/28 07:05:49;;;;;;;3.47;1.30;;;18.30;99.90;;;;;;5001979;28;20044;-77
2023/08/28 07:08:15;;;;;;;5.35;1.40;;;17.40;99.90;;;;;;5016371;28;20170;-78
2023/08/28 07:10:42;;;;;;;5.05;1.75;;;18.10;99.90;;;;;;5020650;28;20128;-77
2023/08/28 07:13:08;;;;;;;3.80;1.17;;;18.20;99.90;;;;;;5018375;28;20487;-77
2023/08/28 07:15:34;;;;;;;3.45;0.90;;;17.70;99.90;;;;;;5020585;28;20052;-76
2023/08/28 07:17:59;;;;;;;6.57;1.27;;;18.10;99.90;;;;;;5019154;28;20503;-76
2023/08/28 07:20:25;;;;;;;6.40;1.75;;;17.40;99.90;;;;;;5019796;28;20124;-77
2023/08/28 07:22:53;;;;;;;3.97;1.20;;;18.30;99.90;;;;;;5018729;28;20084;-77
2023/08/28 07:25:22;;;;;;;3.80;1.17;;;18.20;99.90;;;;;;5003591;28;20124;-78
2023/08/28 07:27:49;;;;;;;6.55;1.38;;;18.70;99.90;;;;;;5020341;28;20411;-78
2023/08/28 07:30:15;;;;;;;3.80;1.13;;;18.50;99.90;;;;;;5002091;28;20568;-78
2023/08/28 07:32:40;;;;;;;3.45;1.10;;;18.20;99.90;;;;;;5005587;28;20038;-78
2023/08/28 07:35:07;;;;;;;4.72;1.20;;;18.40;99.90;;;;;;5026383;28;20029;-78
2023/08/28 07:37:36;;;;;;;4.38;1.10;;;18.30;99.90;;;;;;5023761;28;20052;-77
2023/08/28 07:40:04;;;;;;;3.17;1.08;;;17.60;99.90;;;;;;5020568;28;20030;-77
2023/08/28 07:42:30;;;;;;;7.03;1.73;;;18.40;99.90;;;;;;5020911;28;20048;-77
2023/08/28 07:44:56;;;;;;;3.92;1.40;;;17.90;99.90;;;;;;5006608;28;20462;-77
2023/08/28 07:47:22;;;;;;;4.93;1.08;;;19.50;99.90;;;;;;5019947;28;20525;-77
2023/08/28 07:49:48;;;;;;;3.40;0.90;;;17.90;99.90;;;;;;5021090;28;20049;-77
2023/08/28 07:52:13;;;;;;;4.28;1.02;;;18.50;99.90;;;;;;5024363;28;20049;-77
2023/08/28 07:54:39;;;;;;;5.05;1.20;;;18.50;99.90;;;;;;5024440;28;20041;-77
2023/08/28 07:57:05;;;;;;;3.72;1.10;;;18.30;99.90;;;;;;5017230;28;20025;-77
2023/08/28 07:59:31;;;;;;;3.83;1.30;;;18.30;99.90;;;;;;5007927;28;20560;-78
2023/08/28 08:01:59;;;;;;;3.55;1.17;;;18.70;99.90;;;;;;5019991;28;20562;-78
2023/08/28 08:04:26;;;;;;;3.38;1.10;;;18.60;99.90;;;;;;5019825;28;20048;-77
2023/08/28 08:06:52;;;;;;;3.65;0.90;;;18.00;99.90;;;;;;5003975;28;20049;-76
2023/08/28 08:09:18;;;;;;;4.25;1.10;;;18.20;99.90;;;;;;5018684;28;20119;-76
2023/08/28 08:11:43;;;;;;;2.95;1.05;;;17.90;99.90;;;;;;5003909;28;20049;-77
2023/08/28 08:14:09;;;;;;;3.58;1.17;;;17.70;99.90;;;;;;5004974;28;20059;-77
2023/08/28 08:16:35;;;;;;;3.03;1.20;;;18.50;99.90;;;;;;5017679;28;20045;-77
2023/08/28 08:19:01;;;;;;;3.08;1.00;;;18.80;99.90;;;;;;5022470;28;20044;-77
2023/08/28 08:21:29;;;;;;;4.15;1.20;;;18.40;99.90;;;;;;5020418;28;20110;-77
2023/08/28 08:23:55;;;;;;;4.60;1.52;;;17.80;99.90;;;;;;5015518;28;20038;-77
2023/08/28 08:26:21;;;;;;;4.68;1.10;;;17.70;99.90;;;;;;5016664;28;20529;-79
2023/08/28 08:28:47;;;;;;;4.53;1.00;;;18.40;99.90;;;;;;5018792;28;20045;-80
2023/08/28 08:31:13;;;;;;;3.55;1.10;;;18.50;99.90;;;;;;5021196;28;20061;-79
2023/08/28 08:33:39;;;;;;;4.03;1.10;;;18.50;99.90;;;;;;5006826;28;20049;-79
2023/08/28 08:36:05;;;;;;;4.15;1.20;;;20.30;99.90;;;;;;5026181;28;20537;-79
2023/08/28 08:38:31;;;;;;;3.80;1.05;;;18.90;99.90;;;;;;5020865;28;20042;-79
2023/08/28 08:40:58;;;;;;;3.38;1.10;;;18.50;99.90;;;;;;5007152;28;20048;-79
2023/08/28 08:43:25;;;;;;;4.10;1.10;;;18.60;99.90;;;;;;5024556;28;20049;-79
2023/08/28 08:46:00;;;;;;;4.88;1.30;;;18.50;99.90;;;;;;5005723;28;20554;-78
2023/08/28 08:48:27;;;;;;;3.15;1.02;;;18.90;99.90;;;;;;5021889;28;20045;-78
2023/08/28 08:51:07;;;;;;;4.30;1.17;;;18.40;99.90;;;;;;5006867;28;20049;-79
2023/08/28 08:53:45;;;;;;;2.42;0.93;;;18.10;99.90;;;;;;5012460;28;20049;-80
2023/08/28 08:56:16;;;;;;;3.80;1.20;;;18.60;99.90;;;;;;5005080;28;20052;-78
2023/08/28 08:58:43;;;;;;;3.42;1.10;;;17.70;99.90;;;;;;5010255;28;20092;-80
2023/08/28 09:01:10;;;;;;;3.90;1.10;;;18.80;99.90;;;;;;5009829;28;20052;-79
2023/08/28 09:03:38;;;;;;;4.05;1.42;;;18.20;99.90;;;;;;5028450;28;20123;-78
2023/08/28 09:06:08;;;;;;;2.72;1.02;;;18.40;99.90;;;;;;5030935;28;20033;-78
2023/08/28 09:08:39;;;;;;;3.80;1.15;;;18.70;99.90;;;;;;5033462;28;20042;-78
2023/08/28 09:11:05;;;;;;;4.82;1.08;;;18.60;99.90;;;;;;5012749;28;20065;-78
2023/08/28 09:13:31;;;;;;;3.28;1.00;;;18.50;99.90;;;;;;5030594;28;20037;-78
2023/08/28 09:15:57;;;;;;;6.95;1.38;;;18.80;99.90;;;;;;5013960;28;20044;-78
2023/08/28 09:18:25;;;;;;;3.45;1.20;;;18.60;99.90;;;;;;5030677;28;20041;-78
2023/08/28 09:21:11;;;;;;;4.53;1.42;;;18.70;98.50;;;;;;5014720;28;20037;-79
2023/08/28 09:23:45;;;;;;;3.35;1.10;;;19.00;99.90;;;;;;5023401;28;20116;-78
2023/08/28 09:26:15;;;;;;;;;;;18.30;99.30;;;;;;5034927;28;20056;-78
2023/08/28 09:28:41;;;;;;;4.63;1.90;;;19.00;90.70;;;;;;5034225;28;19971;-78
2023/08/28 09:31:06;;;;;;;3.92;1.30;;;18.50;98.30;;;;;;5025948;28;20041;-78
2023/08/28 09:33:44;;;;;;;5.50;1.23;;;18.30;96.90;;;;;;5033383;28;20065;-78
2023/08/28 09:36:15;;;;;;;3.78;1.20;;;18.60;99.90;;;;;;5026626;28;20045;-78
2023/08/28 09:38:41;;;;;;;3.53;1.00;;;18.80;97.10;;;;;;5031445;28;20049;-78
2023/08/28 09:41:08;;;;;;;3.80;1.27;;;18.70;93.90;;;;;;5027387;28;20113;-78
2023/08/28 09:43:35;;;;;;;4.80;1.20;;;18.80;93.50;;;;;;5018514;28;20072;-78
2023/08/28 09:46:03;;;;;;;3.40;1.20;;;18.60;93.00;;;;;;5025932;28;20037;-78
2023/08/28 09:48:32;;;;;;;3.55;1.10;;;18.70;92.20;;;;;;5032568;28;20052;-78
2023/08/28 09:51:04;;;;;;;2.92;1.00;;;18.70;91.10;;;;;;5026381;28;20042;-78
2023/08/28 09:53:33;;;;;;;2.92;1.00;;;17.90;85.00;;;;;;5026082;28;20112;-78
2023/08/28 09:55:59;;;;;;;4.78;1.30;;;18.70;72.60;;;;;;5023514;28;20045;-78
2023/08/28 09:58:27;;;;;;;3.92;1.10;;;18.70;81.60;;;;;;5029392;28;20041;-78
2023/08/28 10:00:53;;;;;;;4.85;1.00;;;18.50;78.30;;;;;;5009869;28;20521;-78
2023/08/28 10:03:21;;;;;;;3.60;1.00;;;19.30;73.30;;;;;;5031054;28;20037;-78
2023/08/28 10:05:47;;;;;;;3.40;1.00;;;18.60;69.90;;;;;;5031725;28;20449;-78
2023/08/28 10:08:15;;;;;;;3.40;0.93;;;18.70;65.70;;;;;;5033553;28;20044;-78
2023/08/28 10:10:45;;;;;;;2.55;0.98;;;18.60;65.20;;;;;;5032746;28;20108;-78
2023/08/28 10:13:13;;;;;;;4.32;1.35;;;18.80;62.50;;;;;;5023407;28;20041;-78
2023/08/28 10:15:52;;;;;;;4.00;1.05;;;18.80;55.40;;;;;;5032388;28;20044;-78
2023/08/28 10:18:40;;;;;;;3.38;1.08;;;18.80;46.20;;;;;;5008987;28;20048;-78
2023/08/28 10:21:07;;;;;;;3.38;1.10;;;18.60;24.40;;;;;;5006129;28;20065;-78
2023/08/28 10:23:34;;;;;;;3.25;1.13;;;18.50;44.20;;;;;;5024557;28;20045;-79
2023/08/28 10:26:02;;;;;;;3.58;1.10;;;18.60;40.70;;;;;;5021439;28;20041;-78
2023/08/28 10:28:29;;;;;;;3.25;1.10;;;18.80;38.10;;;;;;5043751;28;20049;-78
2023/08/28 10:30:56;;;;;;;3.53;0.93;;;18.60;40.80;;;;;;5024839;28;20037;-79
2023/08/28 10:33:22;;;;;;;3.20;1.20;;;18.90;34.50;;;;;;5027877;28;20303;-78
2023/08/28 10:35:52;;;;;;;3.03;1.00;;;19.10;33.10;;;;;;5032890;28;20455;-79
2023/08/28 10:38:19;;;;;;;4.00;1.10;;;18.60;30.30;;;;;;5011914;28;20045;-78
2023/08/28 10:40:48;;;;;;;5.63;1.33;;;19.00;29.80;;;;;;5027414;28;20491;-79
2023/08/28 10:43:15;;;;;;;3.70;1.20;;;18.80;23.60;;;;;;5022156;28;20098;-78
2023/08/28 10:45:42;;;;;;;3.40;1.00;;;19.10;18.80;;;;;;5033565;28;20407;-79
2023/08/28 10:48:08;;;;;;;3.22;1.02;;;18.90;13.90;;;;;;5032041;28;20040;-78
2023/08/28 10:50:38;;;;;;;3.67;0.93;;;18.60;13.10;;;;;;5027136;28;20041;-79
2023/08/28 10:53:05;;;;;;;3.05;1.00;;;18.90;14.10;;;;;;5035177;28;20033;-78
2023/08/28 10:55:31;;;;;;;3.58;1.48;;;18.40;7.10;;;;;;5030508;28;20109;-78
2023/08/28 10:58:02;;;;;;;3.70;1.10;;;18.40;4.60;;;;;;5033409;28;20061;-78
2023/08/28 11:00:29;;;;;;;2.97;1.00;;;18.70;11.10;;;;;;5034715;28;20044;-79
2023/08/28 11:03:09;;;;;;;4.10;1.10;;;18.60;7.60;;;;;;5034897;28;20065;-79
2023/08/28 11:05:38;;;;;;;3.60;1.00;;;19.00;1.00;;;;;;5028175;28;20044;-79
2023/08/28 11:08:04;;;;;;;3.08;1.10;;;18.90;6.70;;;;;;5011363;28;20243;-79
2023/08/28 11:10:31;;;;;;;3.95;1.00;;;18.80;1.00;;;;;;5034558;28;20462;-79
2023/08/28 11:13:08;;;;;;;3.38;0.90;;;18.80;1.90;;;;;;5035720;28;20048;-79
2023/08/28 11:15:43;;;;;;;3.80;1.27;;;18.70;4.50;;;;;;5014669;28;20033;-79
2023/08/28 11:18:25;;;;;;;3.28;1.08;;;19.10;1.00;;;;;;5019290;28;20471;-78
2023/08/28 11:20:53;;;;;;;5.35;1.25;;;18.80;4.50;;;;;;5032476;28;20048;-78
2023/08/28 11:23:23;;;;;;;3.95;1.05;;;19.00;2.30;;;;;;5031916;28;20034;-80
2023/08/28 11:25:50;;;;;;;2.75;0.98;;;19.00;1.80;;;;;;5010481;28;20116;-80
2023/08/28 11:28:41;;;;;;;4.25;1.10;;;18.20;3.10;;;;;;5014734;28;20033;-79
2023/08/28 11:31:06;;;;;;;2.63;1.02;;;18.70;1.00;;;;;;5018336;28;20046;-77
2023/08/28 11:33:42;;;;;;;5.95;1.00;;;18.80;1.00;;;;;;5017090;28;20557;-78
2023/08/28 11:36:10;;;;;;;2.80;0.93;;;18.90;1.00;;;;;;5022919;28;20103;-78
2023/08/28 11:38:38;;;;;;;2.72;0.90;;;19.10;1.00;;;;;;5026791;28;20992;-78
2023/08/28 11:41:08;;;;;;;3.03;1.13;;;18.80;1.00;;;;;;5026609;28;20044;-79
2023/08/28 11:43:39;;;;;;;2.03;0.90;;;18.70;1.00;;;;;;5023344;28;20061;-79
2023/08/28 11:46:06;;;;;;;2.53;0.90;;;18.70;1.00;;;;;;5010231;28;20096;-78
2023/08/28 11:48:33;;;;;;;3.13;0.98;;;18.90;1.00;;;;;;5011808;28;20038;-78
2023/08/28 11:51:01;;;;;;;2.58;0.98;;;18.80;1.00;;;;;;5025615;28;20041;-78
2023/08/28 11:53:34;;;;;;;2.70;0.90;;;18.90;1.00;;;;;;5025905;28;20034;-79
2023/08/28 11:56:01;;;;;;;3.10;0.90;;;19.10;1.00;;;;;;5029421;28;20037;-78
2023/08/28 11:58:27;;;;;;;3.83;0.82;;;19.10;1.00;;;;;;5010632;28;20092;-80
2023/08/28 12:00:53;;;;;;;3.05;1.00;;;19.10;1.00;;;;;;5027105;28;20457;-78
2023/08/28 12:03:19;;;;;;;2.75;0.90;;;19.10;1.00;;;;;;5007484;28;20124;-78
2023/08/28 12:05:45;;;;;;;2.25;0.90;;;18.30;1.00;;;;;;5006587;28;20047;-76
2023/08/28 12:08:12;;;;;;;3.47;1.00;;;19.00;1.00;;;;;;5021281;28;20462;-77
2023/08/28 12:10:38;;;;;;;3.55;0.90;;;18.90;1.00;;;;;;5022031;28;20705;-77
2023/08/28 12:13:05;;;;;;;2.65;1.00;;;18.90;1.00;;;;;;5020606;28;20513;-78
2023/08/28 12:15:35;;;;;;;2.58;0.90;;;19.20;1.00;;;;;;5020728;28;20045;-78
2023/08/28 12:18:05;;;;;;;3.60;0.95;;;18.40;1.00;;;;;;5005701;28;20437;-79
2023/08/28 12:20:33;;;;;;;6.00;1.00;;;19.00;1.00;;;;;;5021684;28;20092;-78
2023/08/28 12:22:59;;;;;;;5.32;1.00;;;18.20;1.00;;;;;;5006210;28;20103;-77
2023/08/28 12:25:34;;;;;;;3.25;0.85;;;19.40;1.00;;;;;;5018405;28;20046;-78
2023/08/28 12:28:05;;;;;;;1.80;0.73;;;18.50;3.10;;;;;;5006574;28;20479;-77
2023/08/28 12:30:31;;;;;;;2.65;0.80;;;18.70;1.00;;;;;;5005247;28;20500;-78
2023/08/28 12:32:56;;;;;;;2.03;0.80;;;19.00;1.00;;;;;;5024837;28;20045;-78
2023/08/28 12:35:22;;;;;;;3.22;1.02;;;18.80;1.00;;;;;;5023685;28;20033;-78
2023/08/28 12:37:51;;;;;;;3.00;0.90;;;19.10;1.00;;;;;;5021573;28;20037;-78
2023/08/28 12:40:17;;;;;;;2.95;0.98;;;19.80;2.70;;;;;;5009899;28;21616;-77
2023/08/28 12:42:43;;;;;;;4.97;1.08;;;19.60;1.00;;;;;;5007718;28;20072;-78
2023/08/28 12:45:09;;;;;;;2.92;1.00;;;19.60;1.00;;;;;;5010056;28;20558;-78
2023/08/28 12:47:35;;;;;;;3.75;1.10;;;19.00;1.00;;;;;;5004413;28;20057;-78
2023/08/28 12:50:00;;;;;;;3.65;1.17;;;19.40;1.00;;;;;;5020777;28;20068;-78
2023/08/28 12:52:26;;;;;;;3.22;0.90;;;19.10;1.00;;;;;;5020146;28;20045;-77